Airfield :
LOGIN :

Register | Disclaimer

   EN    FR    IT 

 










Legend :    VFR   Marginal VFR   IFR   Intensive IFR   Very Intensive IFR
Visi :
Ceiling :
>= 8 km
>= 3000ft
5 to 8 km
1000 to 3000 ft
1500m to 5 km
500 to 1000 ft
800 to 1500m
200 to 500 ft
< 800m
< 200 ft
Symbols :   Thunderstorms  Fog  Heavy snow  Heavy precipitations  Wind > 20 kt
SIGMETs :     Misc.  Thunderstorms  Icing  Turbulence  Mountain Waves  Volcanic Ashes






- Airport Elevation : 308 ft
- IATA code : POZ


EPPO - Poznan-Lawica

CURRENT METAR :
  • 032030Z 26003KT CAVOK 17/11 Q1016

EXPIRED METARs :
  • 032000Z 26004KT CAVOK 17/11 Q1016
  • 031930Z 28004KT CAVOK 19/11 Q1016
  • 031900Z 28006KT CAVOK 19/11 Q1015
  • 031830Z 29006KT CAVOK 21/11 Q1015
  • 031800Z 28009KT CAVOK 20/10 Q1015

TAF TAF EPPO
Valid from the 03 at 18:00 until the 04 at 18:00 UTC


031730Z 0318/0418 29010KT CAVOK
BECMG 0318/0321 23002KT
BECMG 0407/0410 26012KT
TEMPO 0410/0416 26015G25KT
PROB30
TEMPO 0411/0416 SCT043TCU



MET'MAP, your aeronautical weather chart ! - Copyright ORBIFLY December 2007 - Disclaimer

ORBIFLY MET'MAP TEAM :

Programming & Development : Alexandra Zaïnal
Concept & original design : Baudouin d'Aumeries
Assistance for programming : Marc-Olivier Méhu
Technical & hardware support : Manuel Goepfert

Contact : metmap@orbifly.com




SOURCES & CREDITS :

   NOAA